Time;durP1;ratioP1;P1;durP2;ratioP2;P2;SDS_P1;SDS_P2;PMS_P1;PMS_P2;Temp;Humidity;BMP_temperature;BMP_pressure;BME280_temperature;BME280_humidity;BME280_pressure;Samples;Min_cycle;Max_cycle;Signal;HPM_P1;HPM_P2
2021/07/23 00:01:36;;;;;;;19.23;9.60;;;19.00;99.90;;;;;;5081754;28;20936;-57
2021/07/23 00:04:02;;;;;;;17.77;9.20;;;18.80;99.90;;;;;;5080596;28;20390;-57
2021/07/23 00:06:28;;;;;;;18.00;9.05;;;18.80;99.90;;;;;;5084751;28;21135;-57
2021/07/23 00:08:53;;;;;;;17.23;9.10;;;18.80;99.90;;;;;;5084789;28;20410;-56
2021/07/23 00:11:19;;;;;;;17.03;9.90;;;18.80;99.90;;;;;;5081867;28;20394;-56
2021/07/23 00:13:45;;;;;;;16.38;10.02;;;18.90;99.90;;;;;;5084897;28;20402;-54
2021/07/23 00:16:10;;;;;;;17.50;9.50;;;18.90;99.90;;;;;;5072345;28;20392;-53
2021/07/23 00:18:36;;;;;;;16.40;9.27;;;18.90;99.90;;;;;;5081046;28;20851;-54
2021/07/23 00:21:01;;;;;;;14.97;9.50;;;18.80;99.90;;;;;;5080896;28;20823;-54
2021/07/23 00:23:27;;;;;;;17.58;9.35;;;18.70;99.90;;;;;;5083764;28;20444;-54
2021/07/23 00:25:53;;;;;;;18.40;10.25;;;18.60;99.90;;;;;;5090044;28;20382;-55
2021/07/23 00:28:18;;;;;;;15.73;9.50;;;18.50;99.90;;;;;;5091929;28;20511;-55
2021/07/23 00:30:44;;;;;;;16.23;9.27;;;18.50;99.90;;;;;;5093259;28;20461;-55
2021/07/23 00:33:10;;;;;;;15.15;9.60;;;18.40;99.90;;;;;;5092158;28;20809;-54
2021/07/23 00:35:35;;;;;;;17.27;9.75;;;18.40;99.90;;;;;;5093017;28;20843;-55
2021/07/23 00:38:01;;;;;;;15.83;9.17;;;18.30;99.90;;;;;;5093454;28;20906;-55
2021/07/23 00:40:26;;;;;;;16.60;9.53;;;18.30;99.90;;;;;;5092551;28;20465;-55
2021/07/23 00:42:52;;;;;;;17.63;9.77;;;18.20;99.90;;;;;;5092881;28;20394;-55
2021/07/23 00:45:19;;;;;;;17.30;10.00;;;18.20;99.90;;;;;;5092338;28;20856;-54
2021/07/23 00:47:48;;;;;;;16.47;10.10;;;17.90;99.90;;;;;;5093381;28;20377;-55
2021/07/23 00:50:14;;;;;;;15.45;10.18;;;17.80;99.90;;;;;;5092236;28;20435;-54
2021/07/23 00:52:40;;;;;;;16.40;9.93;;;17.70;99.90;;;;;;5091475;28;20390;-55
2021/07/23 00:55:07;;;;;;;17.83;10.13;;;17.70;99.90;;;;;;5092996;28;20769;-55
2021/07/23 00:57:36;;;;;;;17.80;9.90;;;17.70;99.90;;;;;;5092338;28;20378;-55
2021/07/23 01:00:03;;;;;;;16.52;10.20;;;17.80;99.90;;;;;;5090187;28;20497;-53
2021/07/23 01:02:29;;;;;;;16.30;10.40;;;17.70;99.90;;;;;;5090676;28;20993;-55
2021/07/23 01:04:55;;;;;;;17.23;10.25;;;17.70;99.90;;;;;;5087600;28;20380;-55
2021/07/23 01:07:20;;;;;;;17.10;10.68;;;17.60;99.90;;;;;;5071177;28;20390;-54
2021/07/23 01:09:47;;;;;;;17.30;10.53;;;17.50;99.90;;;;;;5073320;28;20476;-56
2021/07/23 01:12:12;;;;;;;17.60;10.77;;;17.50;99.90;;;;;;5091366;28;20377;-56
2021/07/23 01:14:41;;;;;;;17.40;10.63;;;17.50;99.90;;;;;;5093029;28;20386;-56
2021/07/23 01:17:06;;;;;;;19.52;10.65;;;17.40;99.90;;;;;;5092289;28;20465;-54
2021/07/23 01:19:54;;;;;;;18.65;10.77;;;17.40;99.90;;;;;;5090492;28;20469;-56
2021/07/23 01:22:21;;;;;;;17.02;10.07;;;17.30;99.90;;;;;;5090287;28;20398;-56
2021/07/23 01:24:48;;;;;;;17.58;9.60;;;17.40;99.90;;;;;;5071940;28;20383;-56
2021/07/23 01:27:15;;;;;;;17.00;9.43;;;17.40;99.90;;;;;;5071474;28;20431;-56
2021/07/23 01:29:40;;;;;;;20.40;10.63;;;17.30;99.90;;;;;;5071988;28;20384;-56
2021/07/23 01:32:07;;;;;;;17.45;9.98;;;17.40;99.90;;;;;;5071755;28;20441;-55
2021/07/23 01:34:32;;;;;;;16.23;9.80;;;17.40;99.90;;;;;;5071381;28;20432;-56
2021/07/23 01:36:58;;;;;;;17.00;9.90;;;17.50;99.90;;;;;;5071050;28;20753;-56
2021/07/23 01:39:25;;;;;;;16.48;9.82;;;17.40;99.90;;;;;;5071134;28;20395;-56
2021/07/23 01:41:51;;;;;;;18.92;9.98;;;17.30;99.90;;;;;;5070475;28;20411;-56
2021/07/23 01:44:17;;;;;;;15.93;9.95;;;17.20;99.90;;;;;;5070920;28;20475;-56
2021/07/23 01:46:43;;;;;;;17.83;10.27;;;17.30;99.90;;;;;;5071877;28;20447;-56
2021/07/23 01:49:08;;;;;;;16.58;10.13;;;17.40;99.90;;;;;;5071225;28;20922;-56
2021/07/23 01:51:34;;;;;;;19.30;9.70;;;17.40;99.90;;;;;;5072011;28;20384;-56
2021/07/23 01:54:00;;;;;;;15.57;10.20;;;17.30;99.90;;;;;;5071741;28;20368;-56
2021/07/23 01:56:27;;;;;;;15.40;9.30;;;17.20;99.90;;;;;;5071308;28;20881;-56
2021/07/23 01:58:54;;;;;;;15.95;9.48;;;17.20;99.90;;;;;;5071102;28;20383;-56
2021/07/23 02:01:20;;;;;;;17.20;10.10;;;17.20;99.90;;;;;;5070770;28;20407;-56
2021/07/23 02:03:46;;;;;;;16.60;9.97;;;17.20;99.90;;;;;;5071733;28;20395;-56
2021/07/23 02:06:11;;;;;;;18.30;10.43;;;17.10;99.90;;;;;;5070700;28;20873;-54
2021/07/23 02:08:37;;;;;;;17.50;10.40;;;17.00;99.90;;;;;;5070913;28;20475;-55
2021/07/23 02:11:03;;;;;;;17.45;9.95;;;17.00;99.90;;;;;;5071493;28;20400;-56
2021/07/23 02:13:28;;;;;;;18.30;10.50;;;17.10;99.90;;;;;;5070465;28;21000;-56
2021/07/23 02:15:54;;;;;;;19.30;10.90;;;17.00;99.90;;;;;;5071511;28;20463;-56
2021/07/23 02:18:19;;;;;;;17.63;10.50;;;16.90;99.90;;;;;;5069971;28;20743;-56
2021/07/23 02:20:45;;;;;;;15.93;10.87;;;16.80;99.90;;;;;;5069917;28;20387;-56
2021/07/23 02:23:11;;;;;;;19.10;10.70;;;16.80;99.90;;;;;;5069977;28;20403;-55
2021/07/23 02:25:37;;;;;;;18.27;10.50;;;16.80;99.90;;;;;;5070954;28;20718;-56
2021/07/23 02:28:03;;;;;;;19.07;10.37;;;16.80;99.90;;;;;;5085348;28;20393;-56
2021/07/23 02:30:29;;;;;;;17.33;10.30;;;16.70;99.90;;;;;;5090426;28;20386;-56
2021/07/23 02:32:55;;;;;;;17.80;10.90;;;16.80;99.90;;;;;;5091022;28;20497;-56
2021/07/23 02:35:21;;;;;;;18.97;10.97;;;16.80;99.90;;;;;;5089848;28;20454;-57
2021/07/23 02:37:47;;;;;;;20.93;10.73;;;16.70;99.90;;;;;;5090978;28;20469;-56
2021/07/23 02:40:13;;;;;;;17.45;10.70;;;16.60;99.90;;;;;;5090238;28;20772;-54
2021/07/23 02:42:38;;;;;;;18.33;11.70;;;16.50;99.90;;;;;;5090846;28;20852;-56
2021/07/23 02:45:05;;;;;;;19.65;11.43;;;16.40;99.90;;;;;;5090941;28;20374;-56
2021/07/23 02:47:30;;;;;;;18.25;11.10;;;16.30;99.90;;;;;;5089678;28;20968;-56
2021/07/23 02:49:56;;;;;;;17.03;10.17;;;16.30;99.90;;;;;;5090003;28;20394;-56
2021/07/23 02:52:22;;;;;;;19.08;10.77;;;16.30;99.90;;;;;;5090046;28;20378;-57
2021/07/23 02:54:49;;;;;;;19.75;11.35;;;16.20;99.90;;;;;;5090699;28;20396;-57
2021/07/23 02:57:15;;;;;;;17.58;10.82;;;16.30;99.90;;;;;;5089432;28;20409;-55
2021/07/23 02:59:40;;;;;;;18.27;10.40;;;16.30;99.90;;;;;;5089265;28;20391;-56
2021/07/23 03:02:06;;;;;;;18.63;10.13;;;16.40;99.90;;;;;;5090430;28;20402;-55
2021/07/23 03:04:31;;;;;;;18.53;10.77;;;16.40;99.90;;;;;;5089624;28;20381;-55
2021/07/23 03:06:57;;;;;;;19.00;10.38;;;16.40;99.90;;;;;;5090393;28;20397;-56
2021/07/23 03:09:23;;;;;;;17.93;10.80;;;16.50;99.90;;;;;;5089561;28;20437;-56
2021/07/23 03:11:48;;;;;;;17.93;10.30;;;16.40;99.90;;;;;;5090541;28;20464;-56
2021/07/23 03:14:14;;;;;;;19.58;10.38;;;16.40;99.90;;;;;;5089280;28;20763;-55
2021/07/23 03:16:39;;;;;;;16.38;10.40;;;16.30;99.90;;;;;;5090318;28;20389;-56
2021/07/23 03:19:05;;;;;;;16.23;9.80;;;16.30;99.90;;;;;;5089768;28;20397;-55
2021/07/23 03:21:31;;;;;;;16.92;10.07;;;16.20;99.90;;;;;;5089339;28;20397;-56
2021/07/23 03:23:56;;;;;;;15.65;9.80;;;16.20;99.90;;;;;;5090493;28;20390;-56
2021/07/23 03:26:22;;;;;;;19.10;10.90;;;16.20;99.90;;;;;;5089335;28;20870;-55
2021/07/23 03:28:48;;;;;;;18.43;10.30;;;16.20;99.90;;;;;;5088938;28;20431;-56
2021/07/23 03:31:13;;;;;;;17.90;9.93;;;16.20;99.90;;;;;;5088731;28;20756;-55
2021/07/23 03:33:40;;;;;;;17.10;10.60;;;16.20;99.90;;;;;;5089966;28;20444;-56
2021/07/23 03:36:06;;;;;;;17.30;10.40;;;16.20;99.90;;;;;;5089516;28;20386;-56
2021/07/23 03:38:32;;;;;;;18.27;10.68;;;16.20;99.90;;;;;;5088859;28;20389;-56
2021/07/23 03:40:57;;;;;;;17.30;10.60;;;16.20;99.90;;;;;;5089900;28;20386;-56
2021/07/23 03:43:23;;;;;;;17.52;10.88;;;15.80;99.90;;;;;;5089173;28;20382;-57
2021/07/23 03:45:48;;;;;;;19.20;10.80;;;16.30;99.90;;;;;;5088664;28;20382;-56
2021/07/23 03:48:14;;;;;;;23.17;10.50;;;16.30;99.90;;;;;;5087643;28;20726;-55
2021/07/23 03:50:40;;;;;;;20.35;11.25;;;16.30;99.90;;;;;;5088062;28;20417;-56
2021/07/23 03:53:05;;;;;;;18.60;10.23;;;16.30;99.90;;;;;;5088405;28;20382;-56
2021/07/23 03:55:31;;;;;;;19.10;11.70;;;16.30;99.90;;;;;;5089189;28;20996;-56
2021/07/23 03:57:57;;;;;;;19.02;10.80;;;16.30;99.90;;;;;;5089579;28;20469;-56
2021/07/23 04:00:23;;;;;;;21.47;10.93;;;16.30;99.90;;;;;;5088848;28;20457;-56
2021/07/23 04:02:49;;;;;;;17.35;10.70;;;16.20;99.90;;;;;;5089261;28;20481;-56
2021/07/23 04:05:14;;;;;;;17.77;10.87;;;16.20;99.90;;;;;;5088748;28;20815;-55
2021/07/23 04:07:40;;;;;;;17.50;10.52;;;16.20;99.90;;;;;;5089323;28;20906;-56
2021/07/23 04:10:06;;;;;;;19.27;10.32;;;16.20;99.90;;;;;;5089232;28;20918;-56
2021/07/23 04:12:31;;;;;;;21.27;11.17;;;16.20;99.90;;;;;;5088885;28;20426;-56
2021/07/23 04:14:57;;;;;;;20.90;11.32;;;16.30;99.90;;;;;;5088454;28;20386;-56
2021/07/23 04:17:23;;;;;;;20.53;11.10;;;16.30;99.90;;;;;;5088778;28;20397;-56
2021/07/23 04:19:48;;;;;;;17.40;10.87;;;16.20;99.90;;;;;;5086959;28;21228;-56
2021/07/23 04:22:16;;;;;;;19.30;11.00;;;16.30;99.90;;;;;;5077082;28;20461;-55
2021/07/23 04:24:43;;;;;;;19.73;11.40;;;16.20;99.90;;;;;;5082984;28;20407;-56
2021/07/23 04:27:08;;;;;;;18.98;10.77;;;16.20;99.90;;;;;;5089578;28;20748;-57
2021/07/23 04:29:34;;;;;;;19.27;11.68;;;16.20;99.90;;;;;;5079507;28;20379;-56
2021/07/23 04:32:00;;;;;;;18.53;10.90;;;16.30;99.90;;;;;;5069515;28;20455;-57
2021/07/23 04:34:26;;;;;;;16.90;9.90;;;16.40;99.90;;;;;;5068749;28;20884;-56
2021/07/23 04:36:51;;;;;;;17.17;9.97;;;16.50;99.90;;;;;;5068885;28;20863;-56
2021/07/23 04:39:17;;;;;;;18.40;10.40;;;16.50;99.90;;;;;;5067168;28;21149;-56
2021/07/23 04:41:42;;;;;;;18.55;11.00;;;16.50;99.90;;;;;;5069137;28;20738;-56
2021/07/23 04:44:08;;;;;;;21.70;10.90;;;16.60;99.90;;;;;;5089001;28;20383;-56
2021/07/23 04:46:34;;;;;;;18.30;10.17;;;16.70;99.90;;;;;;5088556;28;20456;-56
2021/07/23 04:48:59;;;;;;;16.40;10.07;;;16.80;99.90;;;;;;5089434;28;20468;-59
2021/07/23 04:51:25;;;;;;;19.83;11.60;;;16.70;99.90;;;;;;5088344;28;20382;-56
2021/07/23 04:53:51;;;;;;;19.00;10.60;;;16.80;99.90;;;;;;5089460;28;20378;-57
2021/07/23 04:56:16;;;;;;;18.13;10.67;;;16.90;99.90;;;;;;5088173;28;20386;-56
2021/07/23 04:58:42;;;;;;;17.85;10.93;;;17.00;99.90;;;;;;5088856;28;20378;-56
2021/07/23 05:01:08;;;;;;;17.67;10.65;;;17.20;99.90;;;;;;5087913;28;20459;-56
2021/07/23 05:03:38;;;;;;;18.87;11.00;;;17.40;99.90;;;;;;5088975;28;20386;-54
2021/07/23 05:06:07;;;;;;;19.90;10.50;;;17.90;99.90;;;;;;5076146;28;20453;-55
2021/07/23 05:08:34;;;;;;;18.88;10.73;;;18.60;99.90;;;;;;5068571;28;20450;-55
2021/07/23 05:11:01;;;;;;;18.10;10.00;;;19.10;99.90;;;;;;5068373;28;20487;-55
2021/07/23 05:13:29;;;;;;;18.33;10.63;;;19.90;99.90;;;;;;5071647;28;20433;-57
2021/07/23 05:15:55;;;;;;;17.23;10.40;;;21.70;99.90;;;;;;5072606;28;20412;-58
2021/07/23 05:18:21;;;;;;;19.67;10.35;;;21.10;99.90;;;;;;5071655;28;20406;-57
2021/07/23 05:20:47;;;;;;;20.67;11.25;;;21.10;99.90;;;;;;5091891;28;20386;-57
2021/07/23 05:23:13;;;;;;;16.33;9.77;;;21.50;99.90;;;;;;5106124;28;20908;-56
2021/07/23 05:25:39;;;;;;;19.03;10.53;;;21.90;99.90;;;;;;5095199;28;20386;-56
2021/07/23 05:28:04;;;;;;;17.40;10.60;;;22.50;99.90;;;;;;5092932;28;20382;-55
2021/07/23 05:30:30;;;;;;;19.08;11.48;;;23.20;99.90;;;;;;5111867;28;20389;-55
2021/07/23 05:32:56;;;;;;;15.50;10.40;;;23.80;99.90;;;;;;5112522;28;20385;-56
2021/07/23 05:35:21;;;;;;;17.33;10.95;;;24.30;99.90;;;;;;5111620;28;20414;-55
2021/07/23 05:37:47;;;;;;;15.77;9.80;;;24.70;99.90;;;;;;5112878;28;20380;-55
2021/07/23 05:40:16;;;;;;;14.80;10.10;;;24.10;99.90;;;;;;5112247;28;20380;-55
2021/07/23 05:42:42;;;;;;;16.90;9.75;;;23.30;99.90;;;;;;5111045;28;20441;-56
2021/07/23 05:45:08;;;;;;;19.83;10.88;;;23.20;99.90;;;;;;5112192;28;20376;-56
2021/07/23 05:47:34;;;;;;;17.48;10.50;;;23.60;99.90;;;;;;5111618;28;20387;-57
2021/07/23 05:49:59;;;;;;;16.55;9.60;;;22.90;99.90;;;;;;5100019;28;20398;-55
2021/07/23 05:52:25;;;;;;;17.35;10.77;;;22.60;99.90;;;;;;5085570;28;20895;-56
2021/07/23 05:54:51;;;;;;;17.27;9.97;;;22.70;99.90;;;;;;5091405;28;20378;-56
2021/07/23 05:57:17;;;;;;;16.20;10.03;;;23.20;99.90;;;;;;5090367;28;20381;-55
2021/07/23 05:59:45;;;;;;;16.42;9.68;;;23.80;99.90;;;;;;5091795;28;20875;-57
2021/07/23 06:02:11;;;;;;;14.57;9.43;;;24.80;99.90;;;;;;5090813;28;20491;-57
2021/07/23 06:04:36;;;;;;;16.42;10.20;;;25.90;99.90;;;;;;5090304;28;20514;-56
2021/07/23 06:07:06;;;;;;;16.87;10.20;;;26.50;99.90;;;;;;5123739;27;20390;-59
2021/07/23 06:09:32;;;;;;;17.35;10.20;;;27.00;99.90;;;;;;5090032;28;20406;-57
2021/07/23 06:11:59;;;;;;;16.80;9.70;;;27.70;99.80;;;;;;5091150;28;20385;-56
2021/07/23 06:14:25;;;;;;;15.30;10.38;;;28.00;98.10;;;;;;5090555;28;20439;-56
2021/07/23 06:16:50;;;;;;;15.77;10.98;;;28.50;96.20;;;;;;5091223;28;20378;-57
2021/07/23 06:19:16;;;;;;;16.52;11.32;;;27.70;96.90;;;;;;5091137;28;20374;-56
2021/07/23 06:21:42;;;;;;;15.85;10.23;;;26.80;98.40;;;;;;5090723;28;20398;-56
2021/07/23 06:24:08;;;;;;;15.52;10.30;;;27.20;98.30;;;;;;5089799;28;20867;-57
2021/07/23 06:26:37;;;;;;;15.95;10.32;;;28.10;97.40;;;;;;5090142;28;20381;-57
2021/07/23 06:29:03;;;;;;;17.25;10.70;;;29.20;95.00;;;;;;5090959;28;20431;-55
2021/07/23 06:31:29;;;;;;;15.70;11.23;;;29.70;92.90;;;;;;5089616;28;20496;-56
2021/07/23 06:33:58;;;;;;;29.27;13.23;;;29.60;92.00;;;;;;5091357;28;20744;-56
2021/07/23 06:36:24;;;;;;;15.25;11.38;;;29.40;92.10;;;;;;5089412;28;20489;-56
2021/07/23 06:38:49;;;;;;;15.43;10.90;;;30.00;91.10;;;;;;5090493;28;20516;-57
2021/07/23 06:41:15;;;;;;;14.55;10.05;;;30.60;88.40;;;;;;5088721;28;20489;-55
2021/07/23 06:43:41;;;;;;;16.90;10.37;;;30.30;88.40;;;;;;5090472;28;20769;-56
2021/07/23 06:46:06;;;;;;;15.77;9.93;;;31.00;85.10;;;;;;5090149;28;20527;-55
2021/07/23 06:48:32;;;;;;;16.95;14.18;;;30.50;84.50;;;;;;5089594;28;20378;-56
2021/07/23 06:50:58;;;;;;;17.25;11.20;;;30.70;83.50;;;;;;5090251;28;20528;-56
2021/07/23 06:53:24;;;;;;;16.75;14.35;;;31.20;82.40;;;;;;5089236;28;20485;-57
2021/07/23 06:55:49;;;;;;;15.38;10.18;;;32.40;77.40;;;;;;5090590;28;20420;-57
2021/07/23 06:58:15;;;;;;;15.77;10.03;;;32.00;77.20;;;;;;5088664;28;20863;-56
2021/07/23 07:00:41;;;;;;;14.80;9.27;;;32.40;75.60;;;;;;5089738;28;20386;-58
2021/07/23 07:03:09;;;;;;;15.60;10.10;;;32.50;74.40;;;;;;5090216;28;20728;-57
2021/07/23 07:05:35;;;;;;;16.10;11.60;;;32.10;74.60;;;;;;5089655;28;20381;-57
2021/07/23 07:08:01;;;;;;;13.40;9.93;;;32.70;72.40;;;;;;5088607;28;20422;-57
2021/07/23 07:10:28;;;;;;;16.10;9.93;;;33.20;69.50;;;;;;5089415;28;21058;-57
2021/07/23 07:13:00;;;;;;;15.70;9.90;;;32.70;69.50;;;;;;5090076;28;20381;-59
2021/07/23 07:15:27;;;;;;;14.95;10.20;;;33.30;68.50;;;;;;5089444;28;20951;-58
2021/07/23 07:18:00;;;;;;;17.45;11.95;;;33.90;66.70;;;;;;5089920;28;20424;-57
2021/07/23 07:20:26;;;;;;;16.65;10.70;;;34.80;63.10;;;;;;5089049;28;20375;-57
2021/07/23 07:22:55;;;;;;;16.88;12.85;;;34.00;64.00;;;;;;5089759;28;20406;-59
2021/07/23 07:25:22;;;;;;;16.33;13.10;;;32.60;64.60;;;;;;5089046;28;20385;-57
2021/07/23 07:27:48;;;;;;;17.23;10.10;;;32.50;67.20;;;;;;5089833;28;21174;-58
2021/07/23 07:30:14;;;;;;;14.30;10.17;;;32.00;69.00;;;;;;5090002;28;20381;-58
2021/07/23 07:32:40;;;;;;;14.95;10.45;;;32.00;68.90;;;;;;5088809;28;20396;-58
2021/07/23 07:35:06;;;;;;;16.70;11.20;;;32.50;68.00;;;;;;5088240;28;20378;-57
2021/07/23 07:37:32;;;;;;;15.52;13.27;;;31.80;69.20;;;;;;5088835;28;20425;-58
2021/07/23 07:39:58;;;;;;;18.67;12.80;;;31.20;71.20;;;;;;5089309;28;20798;-57
2021/07/23 07:42:24;;;;;;;19.42;14.65;;;30.40;72.80;;;;;;5088535;28;20960;-55
2021/07/23 07:44:50;;;;;;;18.52;13.30;;;30.30;73.60;;;;;;5089815;28;20393;-55
2021/07/23 07:47:16;;;;;;;16.60;13.02;;;30.80;74.10;;;;;;5088689;28;20378;-54
2021/07/23 07:49:42;;;;;;;16.55;12.15;;;31.30;71.90;;;;;;5089183;28;20457;-57
2021/07/23 07:52:09;;;;;;;17.98;12.07;;;31.70;71.40;;;;;;5089247;28;20374;-58
2021/07/23 07:54:35;;;;;;;16.60;12.45;;;32.40;69.80;;;;;;5088757;28;20417;-58
2021/07/23 07:57:08;;;;;;;16.85;11.73;;;32.20;69.50;;;;;;5088982;28;20409;-57
2021/07/23 07:59:33;;;;;;;16.60;11.30;;;32.30;69.70;;;;;;5088626;28;20398;-58
2021/07/23 08:01:59;;;;;;;15.80;10.20;;;32.40;69.40;;;;;;5089220;28;20504;-58
2021/07/23 08:04:25;;;;;;;15.00;11.15;;;33.40;66.50;;;;;;5088532;28;20382;-58
2021/07/23 08:06:50;;;;;;;15.70;10.83;;;34.00;64.50;;;;;;5089577;28;20421;-58
2021/07/23 08:09:16;;;;;;;16.15;11.30;;;33.70;63.90;;;;;;5088180;28;20863;-57
2021/07/23 08:11:42;;;;;;;15.07;10.80;;;33.20;65.50;;;;;;5088960;28;20382;-58
2021/07/23 08:14:08;;;;;;;15.60;11.00;;;33.10;65.80;;;;;;5089331;28;20486;-58
2021/07/23 08:16:35;;;;;;;17.05;11.55;;;32.50;67.30;;;;;;5088762;28;20481;-58
2021/07/23 08:19:03;;;;;;;16.15;11.90;;;32.90;66.50;;;;;;5089115;28;20469;-58
2021/07/23 08:21:30;;;;;;;16.38;9.95;;;34.10;63.40;;;;;;5088422;28;20441;-58
2021/07/23 08:24:05;;;;;;;16.10;12.07;;;33.90;62.00;;;;;;5088912;28;20390;-58
2021/07/23 08:26:30;;;;;;;13.95;10.50;;;34.50;62.30;;;;;;5088567;28;20377;-58
2021/07/23 08:28:56;;;;;;;15.25;11.10;;;34.70;60.80;;;;;;5089501;28;20465;-58
2021/07/23 08:31:22;;;;;;;15.53;10.90;;;34.70;60.10;;;;;;5087870;28;20839;-55
2021/07/23 08:33:48;;;;;;;15.20;10.88;;;35.60;58.70;;;;;;5088825;28;20481;-55
2021/07/23 08:36:14;;;;;;;18.70;11.73;;;35.40;58.00;;;;;;5088789;28;20468;-56
2021/07/23 08:38:39;;;;;;;17.90;11.20;;;35.00;58.80;;;;;;5085918;28;20513;-56
2021/07/23 08:41:05;;;;;;;15.32;10.80;;;35.60;58.60;;;;;;5068275;28;20387;-56
2021/07/23 08:43:31;;;;;;;14.40;11.07;;;36.40;56.50;;;;;;5068169;28;20415;-56
2021/07/23 08:45:57;;;;;;;16.77;11.32;;;37.20;55.30;;;;;;5085593;28;20453;-56
2021/07/23 08:48:23;;;;;;;15.90;11.10;;;37.80;53.60;;;;;;5092415;28;20436;-56
2021/07/23 08:50:49;;;;;;;16.00;11.32;;;38.00;51.70;;;;;;5092857;28;20370;-56
2021/07/23 08:53:15;;;;;;;15.73;10.73;;;36.30;53.90;;;;;;5093037;28;20397;-56
2021/07/23 08:55:40;;;;;;;16.13;10.53;;;35.40;55.30;;;;;;5076394;28;20372;-56
2021/07/23 08:58:10;;;;;;;15.13;10.70;;;35.60;54.90;;;;;;5072538;28;20892;-56
2021/07/23 09:00:38;;;;;;;14.13;9.97;;;36.90;53.50;;;;;;5088273;28;20892;-56
2021/07/23 09:03:08;;;;;;;17.60;10.50;;;36.40;53.50;;;;;;5092394;28;20699;-56
2021/07/23 09:05:38;;;;;;;14.98;10.60;;;37.10;53.00;;;;;;5091961;28;20961;-55
2021/07/23 09:08:07;;;;;;;14.40;10.18;;;37.40;50.80;;;;;;5092653;28;20852;-56
2021/07/23 09:10:34;;;;;;;14.38;10.35;;;37.10;50.60;;;;;;5091413;28;20968;-56
2021/07/23 09:13:01;;;;;;;15.07;9.63;;;36.90;51.30;;;;;;5088602;28;20864;-55
2021/07/23 09:15:38;;;;;;;15.20;10.63;;;36.90;50.60;;;;;;5080497;28;20384;-56
2021/07/23 09:18:27;;;;;;;14.40;10.13;;;36.90;51.00;;;;;;5072641;28;20445;-56
2021/07/23 09:21:03;;;;;;;17.95;10.55;;;37.10;50.40;;;;;;5071132;28;20473;-56
2021/07/23 09:23:38;;;;;;;13.60;9.35;;;37.80;48.70;;;;;;5071078;28;20414;-58
2021/07/23 09:26:09;;;;;;;14.10;10.07;;;38.20;48.70;;;;;;5070128;28;20412;-59
2021/07/23 09:28:40;;;;;;;14.30;10.10;;;38.90;47.20;;;;;;5070708;28;20391;-58
2021/07/23 09:31:07;;;;;;;15.38;9.70;;;39.40;45.80;;;;;;5072186;28;20380;-58
2021/07/23 09:33:37;;;;;;;13.55;10.00;;;38.80;45.90;;;;;;5070805;28;20470;-56
2021/07/23 09:36:09;;;;;;;18.27;10.75;;;38.10;46.70;;;;;;5071269;28;20458;-56
2021/07/23 09:38:38;;;;;;;16.35;10.50;;;37.70;47.20;;;;;;5070965;28;20400;-56
2021/07/23 09:41:10;;;;;;;16.60;11.10;;;37.80;47.40;;;;;;5071610;28;20421;-56
2021/07/23 09:43:36;;;;;;;16.30;10.37;;;38.00;46.70;;;;;;5069476;28;20746;-57
2021/07/23 09:46:30;;;;;;;16.55;10.65;;;37.80;47.10;;;;;;5071886;28;20427;-57
2021/07/23 09:48:57;;;;;;;14.43;10.40;;;37.70;47.10;;;;;;5069885;28;20475;-57
2021/07/23 09:51:25;;;;;;;16.15;10.13;;;36.80;48.00;;;;;;5090539;28;20424;-56
2021/07/23 09:53:52;;;;;;;16.45;10.43;;;36.40;49.10;;;;;;5082100;28;20832;-57
2021/07/23 09:56:18;;;;;;;15.07;10.27;;;36.10;49.20;;;;;;5089721;28;20853;-57
2021/07/23 09:58:47;;;;;;;18.30;10.80;;;36.50;48.60;;;;;;5090257;28;20385;-57
2021/07/23 10:01:18;;;;;;;12.82;9.68;;;35.90;48.20;;;;;;5085092;28;20482;-57
2021/07/23 10:03:47;;;;;;;14.75;10.40;;;36.20;49.20;;;;;;5070822;28;20433;-57
2021/07/23 10:06:36;;;;;;;15.88;9.77;;;36.30;48.00;;;;;;5071077;28;20399;-57
2021/07/23 10:09:08;;;;;;;13.70;9.60;;;36.60;47.00;;;;;;5087778;28;20871;-57
2021/07/23 10:11:35;;;;;;;18.50;10.65;;;36.60;47.80;;;;;;5090208;28;20386;-57
2021/07/23 10:14:02;;;;;;;17.63;10.40;;;36.80;47.50;;;;;;5091352;28;20413;-57
2021/07/23 10:16:29;;;;;;;15.60;10.20;;;36.50;48.10;;;;;;5088870;28;20449;-57
2021/07/23 10:18:58;;;;;;;13.75;9.90;;;36.30;48.50;;;;;;5086971;28;20384;-58
2021/07/23 10:21:24;;;;;;;14.85;10.15;;;35.60;48.80;;;;;;5070240;28;20478;-57
2021/07/23 10:23:50;;;;;;;14.75;10.32;;;35.60;49.20;;;;;;5070948;28;20462;-58
2021/07/23 10:26:17;;;;;;;15.77;11.10;;;36.00;48.70;;;;;;5070914;28;20379;-57
2021/07/23 10:28:43;;;;;;;14.97;10.23;;;36.10;47.90;;;;;;5073418;28;20377;-58
2021/07/23 10:31:18;;;;;;;14.93;10.77;;;36.40;48.40;;;;;;5085600;28;20398;-59
2021/07/23 10:33:53;;;;;;;16.30;10.27;;;36.00;48.70;;;;;;5077072;28;20402;-57
2021/07/23 10:36:30;;;;;;;14.65;11.07;;;35.70;49.20;;;;;;5085082;28;20834;-57
2021/07/23 10:39:04;;;;;;;14.77;10.80;;;35.80;47.80;;;;;;5085467;28;20427;-57
2021/07/23 10:42:02;;;;;;;14.90;10.55;;;36.00;48.70;;;;;;5087919;28;20801;-57
2021/07/23 10:44:27;;;;;;;17.13;13.10;;;35.20;49.40;;;;;;5084639;28;20416;-57
2021/07/23 10:46:56;;;;;;;14.10;11.90;;;34.40;51.10;;;;;;5087840;28;20875;-57
2021/07/23 10:49:44;;;;;;;16.42;12.90;;;33.60;51.00;;;;;;5081151;28;20411;-56
2021/07/23 10:52:26;;;;;;;15.20;12.73;;;33.10;50.40;;;;;;5109157;28;20597;-57
2021/07/23 10:55:11;;;;;;;15.80;12.20;;;32.30;51.90;;;;;;5110856;28;20364;-58
2021/07/23 10:57:37;;;;;;;16.48;12.73;;;31.90;52.00;;;;;;5109746;28;20384;-57
2021/07/23 11:00:04;;;;;;;14.13;9.10;;;31.90;52.10;;;;;;5098361;28;20859;-57
2021/07/23 11:02:29;;;;;;;14.60;9.63;;;32.00;52.20;;;;;;5089240;28;20921;-57
2021/07/23 11:05:07;;;;;;;13.70;9.40;;;32.40;52.50;;;;;;5089686;28;20398;-59
2021/07/23 11:07:33;;;;;;;15.17;9.47;;;32.30;52.60;;;;;;5089144;28;20509;-57
2021/07/23 11:09:59;;;;;;;18.57;10.50;;;32.20;54.00;;;;;;5089032;28;20931;-57
2021/07/23 11:12:28;;;;;;;15.10;10.23;;;32.40;53.40;;;;;;5089664;28;20717;-57
2021/07/23 11:15:05;;;;;;;17.20;10.60;;;32.10;54.50;;;;;;5100055;28;20391;-57
2021/07/23 11:17:32;;;;;;;13.63;9.80;;;32.20;55.00;;;;;;5087310;28;20455;-57
2021/07/23 11:20:04;;;;;;;14.25;10.60;;;32.30;54.70;;;;;;5089122;28;20374;-57
2021/07/23 11:22:32;;;;;;;14.40;9.10;;;32.60;53.70;;;;;;5087558;28;20410;-57
2021/07/23 11:25:06;;;;;;;14.10;9.45;;;32.30;53.80;;;;;;5089784;28;20406;-57
2021/07/23 11:27:34;;;;;;;14.20;9.37;;;32.50;53.40;;;;;;5087350;28;20753;-57
2021/07/23 11:30:12;;;;;;;14.27;10.30;;;32.80;53.30;;;;;;5088984;28;21664;-57
2021/07/23 11:32:55;;;;;;;14.02;9.27;;;32.60;53.10;;;;;;5082543;28;20969;-56
2021/07/23 11:35:23;;;;;;;14.98;9.40;;;32.60;53.90;;;;;;5088641;28;20378;-56
2021/07/23 11:37:50;;;;;;;14.30;9.30;;;31.60;51.30;;;;;;5089226;28;20388;-57
2021/07/23 11:40:17;;;;;;;15.65;10.25;;;32.90;51.90;;;;;;5089391;28;20408;-57
2021/07/23 11:42:46;;;;;;;12.73;8.80;;;32.60;52.90;;;;;;5089063;28;20925;-58
2021/07/23 11:45:13;;;;;;;14.35;9.82;;;32.00;52.60;;;;;;5078746;28;20394;-57
2021/07/23 11:47:40;;;;;;;15.27;10.65;;;31.80;53.20;;;;;;5076711;28;20398;-57
2021/07/23 11:50:14;;;;;;;14.93;10.00;;;31.80;52.80;;;;;;5082382;28;20394;-57
2021/07/23 11:52:41;;;;;;;16.63;11.77;;;31.80;54.30;;;;;;5074851;28;20388;-57
2021/07/23 11:55:08;;;;;;;15.90;10.65;;;31.70;54.90;;;;;;5068978;28;20892;-56
2021/07/23 11:57:41;;;;;;;14.40;9.90;;;32.00;54.90;;;;;;5093408;28;20836;-57
2021/07/23 12:00:27;;;;;;;17.98;11.50;;;31.80;55.90;;;;;;5071390;28;20394;-57
2021/07/23 12:02:54;;;;;;;14.48;10.30;;;32.10;54.80;;;;;;5068951;28;20462;-57
2021/07/23 12:05:22;;;;;;;15.75;10.32;;;31.80;55.90;;;;;;5068059;28;20394;-56
2021/07/23 12:07:58;;;;;;;17.40;10.70;;;31.90;54.40;;;;;;5068933;28;20418;-57
2021/07/23 12:10:25;;;;;;;13.98;9.38;;;31.80;53.20;;;;;;5067768;28;20443;-56
2021/07/23 12:12:51;;;;;;;13.57;9.80;;;31.90;54.40;;;;;;5069360;28;20387;-57
2021/07/23 12:15:18;;;;;;;15.98;10.63;;;31.90;53.10;;;;;;5068222;28;20396;-57
2021/07/23 12:17:45;;;;;;;14.13;9.38;;;32.00;53.70;;;;;;5067916;28;20458;-57
2021/07/23 12:20:12;;;;;;;15.25;9.63;;;32.00;53.90;;;;;;5069342;28;20738;-57
2021/07/23 12:22:38;;;;;;;13.60;9.25;;;32.00;54.50;;;;;;5071543;28;20417;-57
2021/07/23 12:25:18;;;;;;;14.03;9.80;;;32.00;54.40;;;;;;5072337;28;20430;-57
2021/07/23 12:27:44;;;;;;;12.77;9.35;;;32.00;53.10;;;;;;5071910;28;20372;-56
2021/07/23 12:30:11;;;;;;;14.70;9.57;;;32.10;52.20;;;;;;5072877;28;20379;-57
2021/07/23 12:32:37;;;;;;;16.80;10.07;;;31.90;52.00;;;;;;5070880;28;20414;-57